sensor_id;sensor_type;location;lat;lon;timestamp;temperature;humidity
14182;DHT22;7171;50.936;6.764;2023-02-24T00:01:53;8.70;99.90
14182;DHT22;7171;50.936;6.764;2023-02-24T00:04:25;8.70;99.90
14182;DHT22;7171;50.936;6.764;2023-02-24T00:06:52;8.70;99.90
14182;DHT22;7171;50.936;6.764;2023-02-24T00:09:21;8.60;99.90
14182;DHT22;7171;50.936;6.764;2023-02-24T00:11:56;8.60;99.90
14182;DHT22;7171;50.936;6.764;2023-02-24T00:14:25;8.50;99.90
14182;DHT22;7171;50.936;6.764;2023-02-24T00:16:53;8.50;99.90
14182;DHT22;7171;50.936;6.764;2023-02-24T00:19:22;8.40;99.90
14182;DHT22;7171;50.936;6.764;2023-02-24T00:21:49;8.30;99.90
14182;DHT22;7171;50.936;6.764;2023-02-24T00:24:19;8.20;99.90
14182;DHT22;7171;50.936;6.764;2023-02-24T00:26:52;8.20;99.90
14182;DHT22;7171;50.936;6.764;2023-02-24T00:29:20;8.10;99.90
14182;DHT22;7171;50.936;6.764;2023-02-24T00:31:49;8.10;99.90
14182;DHT22;7171;50.936;6.764;2023-02-24T00:34:24;8.00;99.90
14182;DHT22;7171;50.936;6.764;2023-02-24T00:36:51;8.00;99.90
14182;DHT22;7171;50.936;6.764;2023-02-24T00:39:17;7.90;99.90
14182;DHT22;7171;50.936;6.764;2023-02-24T00:41:55;7.80;99.90
14182;DHT22;7171;50.936;6.764;2023-02-24T00:44:28;7.80;99.90
14182;DHT22;7171;50.936;6.764;2023-02-24T00:46:57;7.70;99.90
14182;DHT22;7171;50.936;6.764;2023-02-24T00:49:25;7.70;99.90
14182;DHT22;7171;50.936;6.764;2023-02-24T00:51:52;7.60;99.90
14182;DHT22;7171;50.936;6.764;2023-02-24T00:54:19;7.70;99.90
14182;DHT22;7171;50.936;6.764;2023-02-24T00:56:47;7.70;99.90
14182;DHT22;7171;50.936;6.764;2023-02-24T00:59:17;7.60;99.90
14182;DHT22;7171;50.936;6.764;2023-02-24T01:01:44;7.60;99.90
14182;DHT22;7171;50.936;6.764;2023-02-24T01:04:12;7.60;99.90
14182;DHT22;7171;50.936;6.764;2023-02-24T01:06:41;7.60;99.90
14182;DHT22;7171;50.936;6.764;2023-02-24T01:09:11;7.60;99.90
14182;DHT22;7171;50.936;6.764;2023-02-24T01:11:39;7.60;99.90
14182;DHT22;7171;50.936;6.764;2023-02-24T01:14:27;7.60;99.90
14182;DHT22;7171;50.936;6.764;2023-02-24T01:16:55;7.60;99.90
14182;DHT22;7171;50.936;6.764;2023-02-24T01:19:23;7.50;99.90
14182;DHT22;7171;50.936;6.764;2023-02-24T01:21:56;7.60;99.90
14182;DHT22;7171;50.936;6.764;2023-02-24T01:24:23;7.50;99.90
14182;DHT22;7171;50.936;6.764;2023-02-24T01:26:50;7.50;99.90
14182;DHT22;7171;50.936;6.764;2023-02-24T01:29:17;7.50;99.90
14182;DHT22;7171;50.936;6.764;2023-02-24T01:31:45;7.50;99.90
14182;DHT22;7171;50.936;6.764;2023-02-24T01:34:16;7.50;99.90
14182;DHT22;7171;50.936;6.764;2023-02-24T01:36:43;7.50;99.90
14182;DHT22;7171;50.936;6.764;2023-02-24T01:39:10;7.40;99.90
14182;DHT22;7171;50.936;6.764;2023-02-24T01:41:38;7.40;99.90
14182;DHT22;7171;50.936;6.764;2023-02-24T01:44:07;7.40;99.90
14182;DHT22;7171;50.936;6.764;2023-02-24T01:46:58;7.40;99.90
14182;DHT22;7171;50.936;6.764;2023-02-24T01:49:28;7.40;99.90
14182;DHT22;7171;50.936;6.764;2023-02-24T01:52:04;7.40;99.90
14182;DHT22;7171;50.936;6.764;2023-02-24T01:54:33;7.30;99.90
14182;DHT22;7171;50.936;6.764;2023-02-24T01:57:02;7.30;99.90
14182;DHT22;7171;50.936;6.764;2023-02-24T01:59:32;7.30;99.90
14182;DHT22;7171;50.936;6.764;2023-02-24T02:02:03;7.30;99.90
14182;DHT22;7171;50.936;6.764;2023-02-24T02:04:36;7.30;99.90
14182;DHT22;7171;50.936;6.764;2023-02-24T02:07:05;7.30;99.90
14182;DHT22;7171;50.936;6.764;2023-02-24T02:09:35;7.40;99.90
14182;DHT22;7171;50.936;6.764;2023-02-24T02:12:02;7.40;99.90
14182;DHT22;7171;50.936;6.764;2023-02-24T02:14:30;7.40;99.90
14182;DHT22;7171;50.936;6.764;2023-02-24T02:17:07;7.40;99.90
14182;DHT22;7171;50.936;6.764;2023-02-24T02:23:00;7.40;99.90
14182;DHT22;7171;50.936;6.764;2023-02-24T02:25:41;7.40;99.90
14182;DHT22;7171;50.936;6.764;2023-02-24T02:28:26;7.40;99.90
14182;DHT22;7171;50.936;6.764;2023-02-24T02:31:28;7.40;99.90
14182;DHT22;7171;50.936;6.764;2023-02-24T02:34:08;7.30;99.90
14182;DHT22;7171;50.936;6.764;2023-02-24T02:36:48;7.20;99.90
14182;DHT22;7171;50.936;6.764;2023-02-24T02:39:29;7.20;99.90
14182;DHT22;7171;50.936;6.764;2023-02-24T02:42:04;7.10;99.90
14182;DHT22;7171;50.936;6.764;2023-02-24T02:44:44;7.10;99.90
14182;DHT22;7171;50.936;6.764;2023-02-24T02:47:16;7.10;99.90
14182;DHT22;7171;50.936;6.764;2023-02-24T02:49:48;7.10;99.90
14182;DHT22;7171;50.936;6.764;2023-02-24T02:52:23;7.10;99.90
14182;DHT22;7171;50.936;6.764;2023-02-24T02:54:54;7.00;99.90
14182;DHT22;7171;50.936;6.764;2023-02-24T02:57:25;7.00;99.90
14182;DHT22;7171;50.936;6.764;2023-02-24T02:59:55;7.00;99.90
14182;DHT22;7171;50.936;6.764;2023-02-24T03:02:26;6.90;99.90
14182;DHT22;7171;50.936;6.764;2023-02-24T03:04:58;6.90;99.90
14182;DHT22;7171;50.936;6.764;2023-02-24T03:10:03;6.80;99.90
14182;DHT22;7171;50.936;6.764;2023-02-24T03:12:37;6.70;99.90
14182;DHT22;7171;50.936;6.764;2023-02-24T03:15:07;6.70;99.90
14182;DHT22;7171;50.936;6.764;2023-02-24T03:17:42;6.70;99.90
14182;DHT22;7171;50.936;6.764;2023-02-24T03:20:14;6.70;99.90
14182;DHT22;7171;50.936;6.764;2023-02-24T03:22:45;6.70;99.90
14182;DHT22;7171;50.936;6.764;2023-02-24T03:25:14;6.80;99.90
14182;DHT22;7171;50.936;6.764;2023-02-24T03:27:46;6.80;99.90
14182;DHT22;7171;50.936;6.764;2023-02-24T03:30:16;6.80;99.90
14182;DHT22;7171;50.936;6.764;2023-02-24T03:32:50;6.80;99.90
14182;DHT22;7171;50.936;6.764;2023-02-24T03:35:24;6.80;99.90
14182;DHT22;7171;50.936;6.764;2023-02-24T03:37:52;7.00;99.90
14182;DHT22;7171;50.936;6.764;2023-02-24T03:40:20;6.90;99.90
14182;DHT22;7171;50.936;6.764;2023-02-24T03:43:01;6.90;99.90
14182;DHT22;7171;50.936;6.764;2023-02-24T03:45:30;6.90;99.90
14182;DHT22;7171;50.936;6.764;2023-02-24T03:47:59;6.90;99.90
14182;DHT22;7171;50.936;6.764;2023-02-24T03:50:29;6.90;99.90
14182;DHT22;7171;50.936;6.764;2023-02-24T03:53:01;6.90;99.90
14182;DHT22;7171;50.936;6.764;2023-02-24T03:55:40;6.90;99.90
14182;DHT22;7171;50.936;6.764;2023-02-24T03:58:16;6.90;99.90
14182;DHT22;7171;50.936;6.764;2023-02-24T04:00:51;6.90;99.90
14182;DHT22;7171;50.936;6.764;2023-02-24T04:03:27;6.90;99.90
14182;DHT22;7171;50.936;6.764;2023-02-24T04:06:07;6.90;99.90
14182;DHT22;7171;50.936;6.764;2023-02-24T04:08:40;6.90;99.90
14182;DHT22;7171;50.936;6.764;2023-02-24T04:11:13;6.90;99.90
14182;DHT22;7171;50.936;6.764;2023-02-24T04:13:48;6.90;99.90
14182;DHT22;7171;50.936;6.764;2023-02-24T04:16:20;6.90;99.90
14182;DHT22;7171;50.936;6.764;2023-02-24T04:18:53;6.90;99.90
14182;DHT22;7171;50.936;6.764;2023-02-24T04:21:24;6.90;99.90
14182;DHT22;7171;50.936;6.764;2023-02-24T04:23:52;6.90;99.90
14182;DHT22;7171;50.936;6.764;2023-02-24T04:26:19;6.90;99.90
14182;DHT22;7171;50.936;6.764;2023-02-24T04:28:49;6.90;99.90
14182;DHT22;7171;50.936;6.764;2023-02-24T04:31:18;6.80;99.90
14182;DHT22;7171;50.936;6.764;2023-02-24T04:33:45;6.80;99.90
14182;DHT22;7171;50.936;6.764;2023-02-24T04:36:15;6.90;99.90
14182;DHT22;7171;50.936;6.764;2023-02-24T04:38:43;6.80;99.90
14182;DHT22;7171;50.936;6.764;2023-02-24T04:41:11;6.90;99.90
14182;DHT22;7171;50.936;6.764;2023-02-24T04:43:45;6.90;99.90
14182;DHT22;7171;50.936;6.764;2023-02-24T04:46:12;6.90;99.90
14182;DHT22;7171;50.936;6.764;2023-02-24T04:48:39;6.90;99.90
14182;DHT22;7171;50.936;6.764;2023-02-24T04:51:05;6.90;99.90
14182;DHT22;7171;50.936;6.764;2023-02-24T04:53:32;7.00;99.90
14182;DHT22;7171;50.936;6.764;2023-02-24T04:56:03;6.90;99.90
14182;DHT22;7171;50.936;6.764;2023-02-24T04:58:34;7.00;99.90
14182;DHT22;7171;50.936;6.764;2023-02-24T05:01:06;6.90;99.90
14182;DHT22;7171;50.936;6.764;2023-02-24T05:03:35;7.00;99.90
14182;DHT22;7171;50.936;6.764;2023-02-24T05:06:03;6.90;99.90
14182;DHT22;7171;50.936;6.764;2023-02-24T05:08:31;6.90;99.90
14182;DHT22;7171;50.936;6.764;2023-02-24T05:10:58;6.90;99.90
14182;DHT22;7171;50.936;6.764;2023-02-24T05:13:30;6.90;99.90
14182;DHT22;7171;50.936;6.764;2023-02-24T05:16:01;7.00;99.90
14182;DHT22;7171;50.936;6.764;2023-02-24T05:18:28;7.00;99.90
14182;DHT22;7171;50.936;6.764;2023-02-24T05:21:04;7.00;99.90
14182;DHT22;7171;50.936;6.764;2023-02-24T05:23:48;7.00;99.90
14182;DHT22;7171;50.936;6.764;2023-02-24T05:26:18;7.00;99.90
14182;DHT22;7171;50.936;6.764;2023-02-24T05:28:48;7.00;99.90
14182;DHT22;7171;50.936;6.764;2023-02-24T05:31:18;7.00;99.90
14182;DHT22;7171;50.936;6.764;2023-02-24T05:33:46;7.00;99.90
14182;DHT22;7171;50.936;6.764;2023-02-24T05:36:16;7.00;99.90
14182;DHT22;7171;50.936;6.764;2023-02-24T05:38:43;6.90;99.90
14182;DHT22;7171;50.936;6.764;2023-02-24T05:41:12;6.90;99.90
14182;DHT22;7171;50.936;6.764;2023-02-24T05:43:42;6.90;99.90
14182;DHT22;7171;50.936;6.764;2023-02-24T05:46:14;6.90;99.90
14182;DHT22;7171;50.936;6.764;2023-02-24T05:48:41;6.90;99.90
14182;DHT22;7171;50.936;6.764;2023-02-24T05:51:09;6.90;99.90
14182;DHT22;7171;50.936;6.764;2023-02-24T05:53:37;6.90;99.90
14182;DHT22;7171;50.936;6.764;2023-02-24T05:56:06;6.90;99.90
14182;DHT22;7171;50.936;6.764;2023-02-24T05:58:33;6.80;99.90
14182;DHT22;7171;50.936;6.764;2023-02-24T06:01:09;6.80;99.90
14182;DHT22;7171;50.936;6.764;2023-02-24T06:03:42;6.90;99.90
14182;DHT22;7171;50.936;6.764;2023-02-24T06:06:12;6.80;99.90
14182;DHT22;7171;50.936;6.764;2023-02-24T06:08:39;5.70;99.90
14182;DHT22;7171;50.936;6.764;2023-02-24T06:11:12;6.80;99.90
14182;DHT22;7171;50.936;6.764;2023-02-24T06:13:39;6.60;99.90
14182;DHT22;7171;50.936;6.764;2023-02-24T06:16:09;6.80;99.90
14182;DHT22;7171;50.936;6.764;2023-02-24T06:18:37;6.70;99.90
14182;DHT22;7171;50.936;6.764;2023-02-24T06:21:06;6.60;99.90
14182;DHT22;7171;50.936;6.764;2023-02-24T06:23:33;6.60;99.90
14182;DHT22;7171;50.936;6.764;2023-02-24T06:26:01;6.50;99.90
14182;DHT22;7171;50.936;6.764;2023-02-24T06:28:28;6.50;99.90
14182;DHT22;7171;50.936;6.764;2023-02-24T06:30:55;6.40;99.90
14182;DHT22;7171;50.936;6.764;2023-02-24T06:33:22;6.40;99.90
14182;DHT22;7171;50.936;6.764;2023-02-24T06:35:51;6.30;99.90
14182;DHT22;7171;50.936;6.764;2023-02-24T06:38:19;6.30;99.90
14182;DHT22;7171;50.936;6.764;2023-02-24T06:40:46;6.30;99.90
14182;DHT22;7171;50.936;6.764;2023-02-24T06:43:16;6.30;99.90
14182;DHT22;7171;50.936;6.764;2023-02-24T06:45:43;6.30;99.90
14182;DHT22;7171;50.936;6.764;2023-02-24T06:48:10;6.30;99.90
14182;DHT22;7171;50.936;6.764;2023-02-24T06:50:37;6.20;99.90
14182;DHT22;7171;50.936;6.764;2023-02-24T06:53:04;6.20;99.90
14182;DHT22;7171;50.936;6.764;2023-02-24T06:55:42;6.20;99.90
14182;DHT22;7171;50.936;6.764;2023-02-24T06:58:14;6.20;99.90
14182;DHT22;7171;50.936;6.764;2023-02-24T07:00:42;7.20;99.90
14182;DHT22;7171;50.936;6.764;2023-02-24T07:03:22;6.30;99.90
14182;DHT22;7171;50.936;6.764;2023-02-24T07:05:51;6.30;99.90
14182;DHT22;7171;50.936;6.764;2023-02-24T07:08:35;6.30;99.90
14182;DHT22;7171;50.936;6.764;2023-02-24T07:11:04;6.20;99.90
14182;DHT22;7171;50.936;6.764;2023-02-24T07:13:32;6.20;99.90
14182;DHT22;7171;50.936;6.764;2023-02-24T07:16:00;6.20;99.90
14182;DHT22;7171;50.936;6.764;2023-02-24T07:18:31;6.20;99.90
14182;DHT22;7171;50.936;6.764;2023-02-24T07:21:00;6.20;99.90
14182;DHT22;7171;50.936;6.764;2023-02-24T07:23:30;6.30;99.90
14182;DHT22;7171;50.936;6.764;2023-02-24T07:25:57;6.30;99.90
14182;DHT22;7171;50.936;6.764;2023-02-24T07:28:25;6.30;99.90
14182;DHT22;7171;50.936;6.764;2023-02-24T07:30:52;6.30;99.90
14182;DHT22;7171;50.936;6.764;2023-02-24T07:33:18;6.30;99.90
14182;DHT22;7171;50.936;6.764;2023-02-24T07:35:48;6.30;99.90
14182;DHT22;7171;50.936;6.764;2023-02-24T07:38:16;6.30;99.90
14182;DHT22;7171;50.936;6.764;2023-02-24T07:40:47;6.30;99.90
14182;DHT22;7171;50.936;6.764;2023-02-24T07:43:14;6.30;99.90
14182;DHT22;7171;50.936;6.764;2023-02-24T07:45:42;6.30;99.90
14182;DHT22;7171;50.936;6.764;2023-02-24T07:48:11;6.30;99.90
14182;DHT22;7171;50.936;6.764;2023-02-24T07:50:39;6.40;99.90
14182;DHT22;7171;50.936;6.764;2023-02-24T07:53:06;6.40;99.90
14182;DHT22;7171;50.936;6.764;2023-02-24T07:55:34;6.40;99.90
14182;DHT22;7171;50.936;6.764;2023-02-24T07:58:01;6.40;99.90
14182;DHT22;7171;50.936;6.764;2023-02-24T08:00:30;6.40;99.90
14182;DHT22;7171;50.936;6.764;2023-02-24T08:03:15;6.50;99.90
14182;DHT22;7171;50.936;6.764;2023-02-24T08:05:42;6.50;99.90
14182;DHT22;7171;50.936;6.764;2023-02-24T08:08:08;6.60;99.90
14182;DHT22;7171;50.936;6.764;2023-02-24T08:10:39;6.60;99.90
14182;DHT22;7171;50.936;6.764;2023-02-24T08:13:06;6.70;99.90
14182;DHT22;7171;50.936;6.764;2023-02-24T08:15:36;6.80;99.90
14182;DHT22;7171;50.936;6.764;2023-02-24T08:18:03;6.80;99.90
14182;DHT22;7171;50.936;6.764;2023-02-24T08:20:31;6.80;99.90
14182;DHT22;7171;50.936;6.764;2023-02-24T08:23:16;6.80;99.90
14182;DHT22;7171;50.936;6.764;2023-02-24T08:25:43;6.80;99.90
14182;DHT22;7171;50.936;6.764;2023-02-24T08:28:10;6.80;99.90
14182;DHT22;7171;50.936;6.764;2023-02-24T08:30:39;6.80;99.90
14182;DHT22;7171;50.936;6.764;2023-02-24T08:33:11;6.80;99.90
14182;DHT22;7171;50.936;6.764;2023-02-24T08:35:41;6.80;99.90
14182;DHT22;7171;50.936;6.764;2023-02-24T08:38:11;6.70;99.90
14182;DHT22;7171;50.936;6.764;2023-02-24T08:40:42;6.70;99.90
14182;DHT22;7171;50.936;6.764;2023-02-24T08:43:25;7.00;99.90
14182;DHT22;7171;50.936;6.764;2023-02-24T08:46:06;6.70;99.90
14182;DHT22;7171;50.936;6.764;2023-02-24T08:48:43;6.70;99.90
14182;DHT22;7171;50.936;6.764;2023-02-24T08:51:14;6.60;99.90
14182;DHT22;7171;50.936;6.764;2023-02-24T08:53:43;6.60;99.90
14182;DHT22;7171;50.936;6.764;2023-02-24T08:56:13;6.60;99.90
14182;DHT22;7171;50.936;6.764;2023-02-24T08:58:50;6.60;99.90
14182;DHT22;7171;50.936;6.764;2023-02-24T09:01:24;6.60;99.90
14182;DHT22;7171;50.936;6.764;2023-02-24T09:03:52;6.60;99.90
14182;DHT22;7171;50.936;6.764;2023-02-24T09:06:23;6.60;99.90
14182;DHT22;7171;50.936;6.764;2023-02-24T09:08:52;6.60;99.90
14182;DHT22;7171;50.936;6.764;2023-02-24T09:11:41;6.70;99.90
14182;DHT22;7171;50.936;6.764;2023-02-24T09:14:10;6.70;99.90
14182;DHT22;7171;50.936;6.764;2023-02-24T09:16:42;6.60;99.90
14182;DHT22;7171;50.936;6.764;2023-02-24T09:19:27;6.60;99.90
14182;DHT22;7171;50.936;6.764;2023-02-24T09:22:29;6.60;99.90
14182;DHT22;7171;50.936;6.764;2023-02-24T09:24:56;6.60;99.90
14182;DHT22;7171;50.936;6.764;2023-02-24T09:27:42;6.60;99.90
14182;DHT22;7171;50.936;6.764;2023-02-24T09:30:11;6.60;99.90
14182;DHT22;7171;50.936;6.764;2023-02-24T09:32:58;6.60;99.90
14182;DHT22;7171;50.936;6.764;2023-02-24T09:35:26;6.70;99.90
14182;DHT22;7171;50.936;6.764;2023-02-24T09:37:56;6.70;99.90
14182;DHT22;7171;50.936;6.764;2023-02-24T09:40:25;6.70;99.90
14182;DHT22;7171;50.936;6.764;2023-02-24T09:43:11;6.70;99.90
14182;DHT22;7171;50.936;6.764;2023-02-24T09:45:47;6.70;99.90
14182;DHT22;7171;50.936;6.764;2023-02-24T09:48:22;6.70;99.90
14182;DHT22;7171;50.936;6.764;2023-02-24T09:50:54;6.70;99.90
14182;DHT22;7171;50.936;6.764;2023-02-24T09:53:30;6.70;99.90
14182;DHT22;7171;50.936;6.764;2023-02-24T09:56:12;6.70;99.90
14182;DHT22;7171;50.936;6.764;2023-02-24T09:58:45;6.70;99.90
14182;DHT22;7171;50.936;6.764;2023-02-24T10:01:24;6.70;99.90
14182;DHT22;7171;50.936;6.764;2023-02-24T10:04:02;6.70;99.90
14182;DHT22;7171;50.936;6.764;2023-02-24T10:06:36;6.70;99.90
14182;DHT22;7171;50.936;6.764;2023-02-24T10:09:13;6.70;99.90
14182;DHT22;7171;50.936;6.764;2023-02-24T10:11:48;6.80;99.90
14182;DHT22;7171;50.936;6.764;2023-02-24T10:14:22;6.80;99.90
14182;DHT22;7171;50.936;6.764;2023-02-24T10:16:53;6.80;99.90
14182;DHT22;7171;50.936;6.764;2023-02-24T10:19:34;6.90;99.90
14182;DHT22;7171;50.936;6.764;2023-02-24T10:22:06;6.90;99.90
14182;DHT22;7171;50.936;6.764;2023-02-24T10:24:50;6.90;99.90
14182;DHT22;7171;50.936;6.764;2023-02-24T10:27:29;6.90;99.90
14182;DHT22;7171;50.936;6.764;2023-02-24T10:30:02;6.90;99.90
14182;DHT22;7171;50.936;6.764;2023-02-24T10:32:42;6.90;99.90
14182;DHT22;7171;50.936;6.764;2023-02-24T10:35:14;6.90;99.90
14182;DHT22;7171;50.936;6.764;2023-02-24T10:37:42;6.90;99.90
14182;DHT22;7171;50.936;6.764;2023-02-24T10:40:11;6.90;99.90
14182;DHT22;7171;50.936;6.764;2023-02-24T10:42:49;6.90;99.90
14182;DHT22;7171;50.936;6.764;2023-02-24T10:45:23;6.90;99.90
14182;DHT22;7171;50.936;6.764;2023-02-24T10:47:51;6.80;99.90
14182;DHT22;7171;50.936;6.764;2023-02-24T10:50:22;6.80;99.90
14182;DHT22;7171;50.936;6.764;2023-02-24T10:52:52;6.80;99.90
14182;DHT22;7171;50.936;6.764;2023-02-24T10:55:37;6.80;99.90
14182;DHT22;7171;50.936;6.764;2023-02-24T10:58:21;6.70;99.90
14182;DHT22;7171;50.936;6.764;2023-02-24T11:01:06;6.70;99.90
14182;DHT22;7171;50.936;6.764;2023-02-24T11:03:46;6.70;99.90
14182;DHT22;7171;50.936;6.764;2023-02-24T11:06:27;6.70;99.90
14182;DHT22;7171;50.936;6.764;2023-02-24T11:09:18;6.70;99.90
14182;DHT22;7171;50.936;6.764;2023-02-24T11:12:02;6.70;99.90
14182;DHT22;7171;50.936;6.764;2023-02-24T11:14:50;6.70;99.90
14182;DHT22;7171;50.936;6.764;2023-02-24T11:17:36;6.60;99.90
14182;DHT22;7171;50.936;6.764;2023-02-24T11:20:05;6.60;99.90
14182;DHT22;7171;50.936;6.764;2023-02-24T11:22:37;6.60;99.90
14182;DHT22;7171;50.936;6.764;2023-02-24T11:25:07;6.60;99.90
14182;DHT22;7171;50.936;6.764;2023-02-24T11:27:41;6.60;99.90
14182;DHT22;7171;50.936;6.764;2023-02-24T11:30:14;6.60;99.90
14182;DHT22;7171;50.936;6.764;2023-02-24T11:32:58;6.60;99.90
14182;DHT22;7171;50.936;6.764;2023-02-24T11:35:32;6.60;99.90
14182;DHT22;7171;50.936;6.764;2023-02-24T11:38:08;6.50;99.90
14182;DHT22;7171;50.936;6.764;2023-02-24T11:40:40;6.50;99.90
14182;DHT22;7171;50.936;6.764;2023-02-24T11:43:13;6.50;99.90
14182;DHT22;7171;50.936;6.764;2023-02-24T11:45:46;6.40;99.90
14182;DHT22;7171;50.936;6.764;2023-02-24T11:48:16;6.40;99.90
14182;DHT22;7171;50.936;6.764;2023-02-24T11:50:48;6.40;99.90
14182;DHT22;7171;50.936;6.764;2023-02-24T11:53:26;6.40;99.90
14182;DHT22;7171;50.936;6.764;2023-02-24T11:55:59;6.40;99.90
14182;DHT22;7171;50.936;6.764;2023-02-24T12:49:31;5.90;99.90
14182;DHT22;7171;50.936;6.764;2023-02-24T12:52:09;5.90;99.90
14182;DHT22;7171;50.936;6.764;2023-02-24T12:54:43;5.80;99.90
14182;DHT22;7171;50.936;6.764;2023-02-24T12:57:17;5.70;99.90
14182;DHT22;7171;50.936;6.764;2023-02-24T12:59:49;5.60;99.90
14182;DHT22;7171;50.936;6.764;2023-02-24T13:02:23;5.60;99.90
14182;DHT22;7171;50.936;6.764;2023-02-24T13:05:02;5.60;99.90
14182;DHT22;7171;50.936;6.764;2023-02-24T13:07:45;5.50;99.90
14182;DHT22;7171;50.936;6.764;2023-02-24T13:10:24;5.50;99.90
14182;DHT22;7171;50.936;6.764;2023-02-24T13:13:02;5.50;99.90
14182;DHT22;7171;50.936;6.764;2023-02-24T13:15:33;5.40;99.90
14182;DHT22;7171;50.936;6.764;2023-02-24T13:17:59;5.40;99.90
14182;DHT22;7171;50.936;6.764;2023-02-24T13:20:29;5.30;99.90
14182;DHT22;7171;50.936;6.764;2023-02-24T13:22:57;5.30;99.90
14182;DHT22;7171;50.936;6.764;2023-02-24T13:25:30;5.20;99.90
14182;DHT22;7171;50.936;6.764;2023-02-24T13:27:59;5.20;99.90
14182;DHT22;7171;50.936;6.764;2023-02-24T13:30:39;5.10;99.90
14182;DHT22;7171;50.936;6.764;2023-02-24T13:33:21;5.10;99.90
14182;DHT22;7171;50.936;6.764;2023-02-24T13:35:51;5.10;99.90
14182;DHT22;7171;50.936;6.764;2023-02-24T13:38:35;5.00;99.90
14182;DHT22;7171;50.936;6.764;2023-02-24T13:41:07;5.00;99.90
14182;DHT22;7171;50.936;6.764;2023-02-24T13:43:34;4.90;99.90
14182;DHT22;7171;50.936;6.764;2023-02-24T13:46:15;4.90;99.90
14182;DHT22;7171;50.936;6.764;2023-02-24T13:48:58;4.90;99.90
14182;DHT22;7171;50.936;6.764;2023-02-24T13:51:57;4.90;99.90
14182;DHT22;7171;50.936;6.764;2023-02-24T13:54:45;4.90;99.90
14182;DHT22;7171;50.936;6.764;2023-02-24T13:57:40;4.90;99.90
14182;DHT22;7171;50.936;6.764;2023-02-24T14:00:13;4.90;99.90
14182;DHT22;7171;50.936;6.764;2023-02-24T14:02:49;4.90;99.90
14182;DHT22;7171;50.936;6.764;2023-02-24T14:05:20;4.90;99.90
14182;DHT22;7171;50.936;6.764;2023-02-24T14:07:49;4.90;99.90
14182;DHT22;7171;50.936;6.764;2023-02-24T14:10:19;4.90;99.90
14182;DHT22;7171;50.936;6.764;2023-02-24T14:12:48;4.90;99.90
14182;DHT22;7171;50.936;6.764;2023-02-24T14:15:19;4.90;99.90
14182;DHT22;7171;50.936;6.764;2023-02-24T14:17:55;4.90;99.90
14182;DHT22;7171;50.936;6.764;2023-02-24T14:20:23;4.90;99.90
14182;DHT22;7171;50.936;6.764;2023-02-24T14:22:51;4.90;99.90
14182;DHT22;7171;50.936;6.764;2023-02-24T14:25:19;5.00;99.90
14182;DHT22;7171;50.936;6.764;2023-02-24T14:27:49;5.00;99.90
14182;DHT22;7171;50.936;6.764;2023-02-24T14:30:22;5.00;99.90
14182;DHT22;7171;50.936;6.764;2023-02-24T14:32:49;5.10;99.90
14182;DHT22;7171;50.936;6.764;2023-02-24T14:35:26;5.10;99.90
14182;DHT22;7171;50.936;6.764;2023-02-24T14:37:53;5.10;99.90
14182;DHT22;7171;50.936;6.764;2023-02-24T14:40:22;5.10;99.90
14182;DHT22;7171;50.936;6.764;2023-02-24T14:42:50;5.10;99.90
14182;DHT22;7171;50.936;6.764;2023-02-24T14:45:21;5.00;99.90
14182;DHT22;7171;50.936;6.764;2023-02-24T14:47:49;5.10;99.90
14182;DHT22;7171;50.936;6.764;2023-02-24T14:50:18;5.10;99.90
14182;DHT22;7171;50.936;6.764;2023-02-24T14:52:49;5.10;99.90
14182;DHT22;7171;50.936;6.764;2023-02-24T14:55:18;5.10;99.90
14182;DHT22;7171;50.936;6.764;2023-02-24T14:57:50;5.10;99.90
14182;DHT22;7171;50.936;6.764;2023-02-24T15:00:22;5.10;99.90
14182;DHT22;7171;50.936;6.764;2023-02-24T15:02:55;5.10;99.90
14182;DHT22;7171;50.936;6.764;2023-02-24T15:05:23;5.10;99.90
14182;DHT22;7171;50.936;6.764;2023-02-24T15:07:51;5.20;99.90
14182;DHT22;7171;50.936;6.764;2023-02-24T15:10:21;5.20;99.90
14182;DHT22;7171;50.936;6.764;2023-02-24T15:12:52;5.20;99.90
14182;DHT22;7171;50.936;6.764;2023-02-24T15:15:21;5.20;99.90
14182;DHT22;7171;50.936;6.764;2023-02-24T15:17:55;5.30;99.90
14182;DHT22;7171;50.936;6.764;2023-02-24T15:20:27;5.30;99.90
14182;DHT22;7171;50.936;6.764;2023-02-24T15:22:55;5.30;99.90
14182;DHT22;7171;50.936;6.764;2023-02-24T15:25:25;5.30;99.90
14182;DHT22;7171;50.936;6.764;2023-02-24T15:27:54;5.30;99.90
14182;DHT22;7171;50.936;6.764;2023-02-24T15:30:27;5.30;99.90
14182;DHT22;7171;50.936;6.764;2023-02-24T15:33:00;5.30;99.90
14182;DHT22;7171;50.936;6.764;2023-02-24T15:35:28;5.30;99.90
14182;DHT22;7171;50.936;6.764;2023-02-24T15:37:59;5.30;99.90
14182;DHT22;7171;50.936;6.764;2023-02-24T15:40:27;5.30;99.90
14182;DHT22;7171;50.936;6.764;2023-02-24T15:42:55;5.30;99.90
14182;DHT22;7171;50.936;6.764;2023-02-24T15:45:26;5.40;99.90
14182;DHT22;7171;50.936;6.764;2023-02-24T15:47:55;5.40;99.90
14182;DHT22;7171;50.936;6.764;2023-02-24T15:50:22;5.40;99.90
14182;DHT22;7171;50.936;6.764;2023-02-24T15:52:49;5.40;99.90
14182;DHT22;7171;50.936;6.764;2023-02-24T15:55:18;5.40;99.90
14182;DHT22;7171;50.936;6.764;2023-02-24T15:57:47;5.40;99.90
14182;DHT22;7171;50.936;6.764;2023-02-24T16:00:21;5.40;99.90
14182;DHT22;7171;50.936;6.764;2023-02-24T16:02:48;5.40;99.90
14182;DHT22;7171;50.936;6.764;2023-02-24T16:05:15;5.40;99.90
14182;DHT22;7171;50.936;6.764;2023-02-24T16:07:44;5.40;99.90
14182;DHT22;7171;50.936;6.764;2023-02-24T16:10:18;5.40;99.90
14182;DHT22;7171;50.936;6.764;2023-02-24T16:12:48;5.40;99.90
14182;DHT22;7171;50.936;6.764;2023-02-24T16:15:21;5.40;99.90
14182;DHT22;7171;50.936;6.764;2023-02-24T16:17:49;5.40;99.90
14182;DHT22;7171;50.936;6.764;2023-02-24T16:20:18;5.40;99.90
14182;DHT22;7171;50.936;6.764;2023-02-24T16:22:52;5.40;99.90
14182;DHT22;7171;50.936;6.764;2023-02-24T16:25:20;5.40;99.90
14182;DHT22;7171;50.936;6.764;2023-02-24T16:27:47;5.40;99.90
14182;DHT22;7171;50.936;6.764;2023-02-24T16:30:17;5.50;99.90
14182;DHT22;7171;50.936;6.764;2023-02-24T16:32:45;5.50;99.90
14182;DHT22;7171;50.936;6.764;2023-02-24T16:35:12;5.50;99.90
14182;DHT22;7171;50.936;6.764;2023-02-24T16:37:39;5.50;99.90
14182;DHT22;7171;50.936;6.764;2023-02-24T16:40:22;5.50;99.90
14182;DHT22;7171;50.936;6.764;2023-02-24T16:42:50;5.50;99.90
14182;DHT22;7171;50.936;6.764;2023-02-24T16:45:17;5.60;99.90
14182;DHT22;7171;50.936;6.764;2023-02-24T16:47:45;5.60;99.90
14182;DHT22;7171;50.936;6.764;2023-02-24T16:50:18;5.60;99.90
14182;DHT22;7171;50.936;6.764;2023-02-24T16:52:46;5.60;99.90
14182;DHT22;7171;50.936;6.764;2023-02-24T16:55:13;5.60;99.90
14182;DHT22;7171;50.936;6.764;2023-02-24T16:57:41;5.60;99.90
14182;DHT22;7171;50.936;6.764;2023-02-24T17:00:10;5.60;99.90
14182;DHT22;7171;50.936;6.764;2023-02-24T17:02:39;5.60;99.90
14182;DHT22;7171;50.936;6.764;2023-02-24T17:05:08;7.60;99.90
14182;DHT22;7171;50.936;6.764;2023-02-24T17:07:38;5.70;99.90
14182;DHT22;7171;50.936;6.764;2023-02-24T17:10:06;5.70;99.90
14182;DHT22;7171;50.936;6.764;2023-02-24T17:12:33;5.70;99.90
14182;DHT22;7171;50.936;6.764;2023-02-24T17:15:01;5.80;99.90
14182;DHT22;7171;50.936;6.764;2023-02-24T17:17:28;5.80;99.90
14182;DHT22;7171;50.936;6.764;2023-02-24T17:19:54;5.80;99.90
14182;DHT22;7171;50.936;6.764;2023-02-24T17:22:21;5.80;99.90
14182;DHT22;7171;50.936;6.764;2023-02-24T17:24:48;5.90;99.90
14182;DHT22;7171;50.936;6.764;2023-02-24T17:27:15;5.90;99.90
14182;DHT22;7171;50.936;6.764;2023-02-24T17:29:41;6.00;99.90